Time;durP1;ratioP1;P1;durP2;ratioP2;P2;SDS_P1;SDS_P2;PMS_P1;PMS_P2;Temp;Humidity;BMP_temperature;BMP_pressure;BME280_temperature;BME280_humidity;BME280_pressure;Samples;Min_cycle;Max_cycle;Signal;HPM_P1;HPM_P2
2022/09/21 00:00:48;;;;;;;2.75;1.58;;;18.10;66.30;;;;;;10090672;29;20401;-56
2022/09/21 00:05:48;;;;;;;2.80;1.20;;;18.10;66.30;;;;;;10090549;29;20160;-56
2022/09/21 00:10:49;;;;;;;3.60;1.67;;;18.10;66.30;;;;;;10058106;29;20075;-56
2022/09/21 00:15:51;;;;;;;2.78;1.63;;;18.10;66.30;;;;;;10090669;29;20048;-56
2022/09/21 00:20:51;;;;;;;2.45;1.38;;;18.10;66.20;;;;;;10099454;29;20069;-57
2022/09/21 00:26:02;;;;;;;1.95;1.17;;;18.10;66.20;;;;;;10090013;29;20723;-57
2022/09/21 00:31:05;;;;;;;4.72;2.20;;;18.10;66.20;;;;;;10089735;29;20037;-57
2022/09/21 00:36:11;;;;;;;2.40;1.63;;;18.10;66.10;;;;;;10073324;29;20474;-57
2022/09/21 00:41:12;;;;;;;2.60;1.13;;;18.10;66.10;;;;;;10070900;29;20041;-56
2022/09/21 00:46:26;;;;;;;3.33;1.25;;;18.10;66.10;;;;;;10088742;29;20049;-57
2022/09/21 00:51:27;;;;;;;1.98;1.15;;;18.00;66.10;;;;;;10072336;29;20397;-57
2022/09/21 00:56:29;;;;;;;2.13;1.40;;;18.10;66.10;;;;;;10071465;29;20446;-57
2022/09/21 01:01:30;;;;;;;3.40;1.65;;;18.10;66.10;;;;;;10056521;29;20139;-58
2022/09/21 01:06:32;;;;;;;2.92;1.10;;;18.10;66.10;;;;;;10088334;29;20620;-57
2022/09/21 01:12:18;;;;;;;3.22;1.52;;;18.00;66.00;;;;;;10071702;29;20117;-56
2022/09/21 01:17:47;;;;;;;2.05;1.25;;;18.00;66.10;;;;;;10085297;29;20036;-57
2022/09/21 01:23:28;;;;;;;1.70;1.07;;;18.00;66.00;;;;;;10088654;29;20410;-56
2022/09/21 01:29:04;;;;;;;2.95;1.30;;;18.00;65.90;;;;;;10063814;29;20056;-57
2022/09/21 01:34:11;;;;;;;2.05;1.05;;;18.00;66.00;;;;;;10087034;29;20497;-56
2022/09/21 01:39:15;;;;;;;3.28;1.15;;;18.00;65.90;;;;;;10071009;29;20609;-56
2022/09/21 01:44:25;;;;;;;2.80;1.17;;;18.00;65.90;;;;;;10070918;29;20383;-56
2022/09/21 01:49:35;;;;;;;2.35;0.95;;;18.00;65.80;;;;;;10070609;29;20177;-57
2022/09/21 01:54:47;;;;;;;2.15;1.67;;;18.00;65.80;;;;;;10051859;29;20044;-56
2022/09/21 01:59:57;;;;;;;1.67;1.05;;;18.00;65.80;;;;;;10071338;29;20033;-56
2022/09/21 02:05:01;;;;;;;3.15;1.55;;;18.00;65.80;;;;;;10069566;29;20513;-57
2022/09/21 02:10:05;;;;;;;2.72;1.20;;;18.00;65.70;;;;;;10070143;29;20085;-57
2022/09/21 02:15:06;;;;;;;1.98;0.93;;;17.90;65.70;;;;;;10069958;29;20037;-56
2022/09/21 02:20:40;;;;;;;2.25;0.90;;;17.90;65.70;;;;;;10095658;29;20036;-57
2022/09/21 02:26:15;;;;;;;2.78;1.00;;;17.90;65.60;;;;;;10081034;29;20037;-57
2022/09/21 02:31:28;;;;;;;3.17;1.60;;;17.90;65.60;;;;;;10086205;29;20966;-57
2022/09/21 02:36:43;;;;;;;2.55;1.23;;;17.90;65.60;;;;;;10084970;29;20191;-56
2022/09/21 02:42:14;;;;;;;2.92;1.27;;;17.90;65.50;;;;;;10085402;29;20124;-57
2022/09/21 02:47:30;;;;;;;1.40;0.95;;;17.90;65.40;;;;;;10085958;29;20048;-57
2022/09/21 02:52:33;;;;;;;1.85;0.80;;;17.90;65.40;;;;;;10070301;29;20053;-57
2022/09/21 02:57:35;;;;;;;2.60;1.00;;;17.90;65.40;;;;;;10069001;29;20045;-56
2022/09/21 03:02:42;;;;;;;2.13;0.80;;;17.90;65.40;;;;;;10068911;29;20052;-56
2022/09/21 03:07:42;;;;;;;2.25;0.95;;;17.90;65.30;;;;;;10069094;29;20044;-57
2022/09/21 03:12:45;;;;;;;1.95;1.10;;;17.90;65.40;;;;;;10068582;29;20128;-57
2022/09/21 03:17:46;;;;;;;2.65;1.00;;;17.90;65.30;;;;;;10081033;29;20032;-57
2022/09/21 03:22:47;;;;;;;2.65;1.30;;;17.90;65.20;;;;;;10094678;29;20120;-59
2022/09/21 03:27:48;;;;;;;1.25;0.88;;;17.80;65.10;;;;;;10091973;29;20048;-57
2022/09/21 03:32:53;;;;;;;2.20;1.40;;;17.80;65.10;;;;;;10091896;29;20433;-56
2022/09/21 03:37:54;;;;;;;2.40;0.88;;;17.80;65.00;;;;;;10075705;29;20036;-56
2022/09/21 03:42:54;;;;;;;3.50;1.13;;;17.80;65.00;;;;;;10075045;29;20041;-57
2022/09/21 03:48:00;;;;;;;2.13;1.60;;;17.80;65.00;;;;;;10090917;29;20568;-56
2022/09/21 03:53:00;;;;;;;2.65;0.82;;;17.80;65.00;;;;;;10091463;29;20203;-57
2022/09/21 03:58:02;;;;;;;2.13;0.70;;;17.80;64.90;;;;;;10061654;29;20135;-57
2022/09/21 04:03:03;;;;;;;1.80;0.90;;;17.80;64.90;;;;;;10078928;29;20441;-57
2022/09/21 04:08:03;;;;;;;2.60;1.00;;;17.80;64.90;;;;;;10062662;29;20037;-56
2022/09/21 04:13:05;;;;;;;1.90;1.23;;;17.80;64.90;;;;;;10089398;29;20174;-56
2022/09/21 04:18:07;;;;;;;1.48;0.80;;;17.80;64.80;;;;;;10090413;29;20037;-56
2022/09/21 04:23:08;;;;;;;2.25;0.73;;;17.70;64.70;;;;;;10086508;29;20047;-55
2022/09/21 04:28:09;;;;;;;1.48;0.77;;;17.80;64.80;;;;;;10086124;29;20029;-57
2022/09/21 04:33:10;;;;;;;1.58;1.17;;;17.80;64.80;;;;;;10083747;29;20115;-57
2022/09/21 04:38:12;;;;;;;1.65;0.75;;;17.70;64.60;;;;;;10071446;29;20709;-56
2022/09/21 04:43:13;;;;;;;2.05;0.90;;;17.70;64.70;;;;;;10065439;29;20056;-57
2022/09/21 04:48:14;;;;;;;2.25;0.70;;;17.70;64.60;;;;;;10067478;29;20108;-56
2022/09/21 04:53:15;;;;;;;1.58;0.60;;;17.70;64.60;;;;;;10081243;29;20045;-55
2022/09/21 04:58:15;;;;;;;1.58;0.80;;;17.70;64.50;;;;;;10089032;29;20703;-54
2022/09/21 05:03:20;;;;;;;1.80;0.88;;;17.70;64.50;;;;;;10088598;29;20051;-56
2022/09/21 05:13:43;;;;;;;8.15;1.42;;;17.70;64.50;;;;;;10068835;29;20038;-57
2022/09/21 05:18:46;;;;;;;9.35;1.55;;;17.80;64.80;;;;;;10096386;29;20033;-57
2022/09/21 05:23:46;;;;;;;3.63;0.90;;;17.90;64.80;;;;;;10063271;29;20561;-56
2022/09/21 05:28:48;;;;;;;7.93;1.45;;;18.00;65.40;;;;;;10071927;29;20041;-62
2022/09/21 05:34:28;;;;;;;6.78;1.33;;;18.00;65.40;;;;;;10088306;29;20092;-61
2022/09/21 05:39:29;;;;;;;7.90;1.50;;;18.00;66.00;;;;;;9941629;29;20037;-59
2022/09/21 05:44:30;;;;;;;5.90;1.85;;;17.90;65.70;;;;;;10087816;29;20049;-60
2022/09/21 05:49:40;;;;;;;15.57;2.42;;;17.90;66.00;;;;;;10069195;29;20110;-61
2022/09/21 05:55:01;;;;;;;9.07;2.15;;;17.90;66.40;;;;;;10085089;29;20128;-61
2022/09/21 06:00:18;;;;;;;14.38;3.20;;;17.80;65.90;;;;;;10083162;29;20055;-61
2022/09/21 06:05:19;;;;;;;9.48;1.80;;;17.80;65.80;;;;;;10093803;29;20124;-61
2022/09/21 06:10:20;;;;;;;16.20;2.25;;;17.80;65.80;;;;;;10072879;29;20029;-61
2022/09/21 06:15:21;;;;;;;23.48;2.60;;;17.80;65.60;;;;;;10070600;29;20550;-62
2022/09/21 06:20:23;;;;;;;13.10;2.97;;;17.80;65.60;;;;;;10097291;29;20072;-62
2022/09/21 06:25:24;;;;;;;21.25;3.10;;;17.70;65.50;;;;;;10069629;29;20431;-62
2022/09/21 06:30:25;;;;;;;27.85;4.38;;;17.70;65.60;;;;;;10094178;29;20120;-63
2022/09/21 06:35:27;;;;;;;32.05;4.57;;;17.70;65.80;;;;;;10074630;29;20077;-62
2022/09/21 06:40:29;;;;;;;16.98;3.58;;;17.70;66.20;;;;;;10069995;29;20563;-61
2022/09/21 06:45:30;;;;;;;16.50;2.90;;;17.70;65.70;;;;;;10069481;29;20097;-63
2022/09/21 06:50:32;;;;;;;11.25;2.17;;;17.70;65.90;;;;;;10070536;29;20037;-62
2022/09/21 06:55:33;;;;;;;8.98;2.15;;;17.70;65.60;;;;;;10076908;29;20102;-61
2022/09/21 07:00:34;;;;;;;23.30;2.90;;;17.70;65.70;;;;;;10076919;29;20069;-60
2022/09/21 07:05:34;;;;;;;11.15;2.58;;;17.70;66.50;;;;;;10077968;29;20476;-60
2022/09/21 07:10:35;;;;;;;11.98;2.15;;;17.70;65.90;;;;;;10074904;29;20588;-65
2022/09/21 07:15:37;;;;;;;10.23;2.10;;;17.70;66.00;;;;;;10090764;29;20068;-65
2022/09/21 07:20:39;;;;;;;8.20;1.98;;;17.70;65.70;;;;;;10091699;29;20033;-65
2022/09/21 07:25:42;;;;;;;8.20;2.10;;;17.70;65.70;;;;;;10059889;29;20033;-64
2022/09/21 07:30:43;;;;;;;11.45;2.15;;;17.60;65.60;;;;;;10093036;29;20033;-65
2022/09/21 07:35:55;;;;;;;7.85;2.72;;;17.60;65.60;;;;;;10075281;29;20049;-64
2022/09/21 07:40:56;;;;;;;6.30;1.60;;;17.60;65.60;;;;;;10075332;29;20025;-64
2022/09/21 07:45:57;;;;;;;11.30;2.20;;;17.60;65.60;;;;;;10071564;29;20025;-68
2022/09/21 07:51:07;;;;;;;6.78;2.40;;;17.60;65.90;;;;;;10089832;29;20112;-66
2022/09/21 07:56:11;;;;;;;5.78;1.90;;;17.60;65.90;;;;;;10072929;29;20049;-66
2022/09/21 08:01:12;;;;;;;6.75;2.60;;;17.60;66.20;;;;;;10069361;29;20536;-64
2022/09/21 08:06:12;;;;;;;8.73;2.47;;;17.50;66.30;;;;;;10068552;29;20088;-67
2022/09/21 08:11:15;;;;;;;4.82;2.05;;;17.50;66.40;;;;;;10053826;29;20099;-65
2022/09/21 08:16:16;;;;;;;13.73;1.67;;;17.50;66.30;;;;;;10069247;29;20041;-66
2022/09/21 08:21:17;;;;;;;4.03;1.15;;;17.60;66.40;;;;;;10095433;29;20533;-66
2022/09/21 08:26:19;;;;;;;11.60;2.67;;;17.60;66.40;;;;;;10071911;29;20124;-66
2022/09/21 08:31:22;;;;;;;9.10;3.42;;;17.60;66.30;;;;;;10070747;29;20088;-66
2022/09/21 08:36:24;;;;;;;8.35;2.10;;;17.60;66.40;;;;;;10071566;29;20076;-66
2022/09/21 08:42:06;;;;;;;6.10;1.50;;;17.60;66.40;;;;;;10071025;29;20073;-66
2022/09/21 08:47:38;;;;;;;4.60;1.48;;;17.70;66.50;;;;;;10077260;29;20128;-66
2022/09/21 08:52:39;;;;;;;6.25;1.50;;;17.70;66.40;;;;;;10087292;29;20029;-66
2022/09/21 08:57:39;;;;;;;11.30;2.78;;;17.70;66.40;;;;;;10086780;29;20151;-66
2022/09/21 09:03:31;;;;;;;5.75;2.30;;;17.70;66.40;;;;;;10086655;29;20096;-65
2022/09/21 09:08:57;;;;;;;6.55;1.50;;;17.70;66.40;;;;;;10035613;29;20045;-64
2022/09/21 09:14:16;;;;;;;3.22;0.98;;;17.80;66.40;;;;;;10069681;29;20053;-65
2022/09/21 09:19:49;;;;;;;3.10;1.20;;;17.80;66.40;;;;;;10096299;29;20029;-65
2022/09/21 09:24:53;;;;;;;2.85;1.85;;;17.80;66.40;;;;;;10070598;29;20108;-65
2022/09/21 09:30:20;;;;;;;3.50;1.38;;;17.80;66.40;;;;;;10070176;29;20029;-66
2022/09/21 09:35:42;;;;;;;5.40;1.60;;;17.80;66.30;;;;;;10085224;29;20053;-65
2022/09/21 09:40:43;;;;;;;2.25;1.13;;;17.90;66.40;;;;;;10069071;29;20061;-65
2022/09/21 09:46:10;;;;;;;2.72;0.70;;;17.90;66.20;;;;;;10085093;29;20197;-65
2022/09/21 09:51:11;;;;;;;5.00;1.23;;;18.00;66.20;;;;;;10083769;29;20044;-66
2022/09/21 09:56:13;;;;;;;4.50;1.02;;;18.00;66.20;;;;;;10068461;29;20489;-64
2022/09/21 10:01:47;;;;;;;2.95;0.90;;;18.00;66.10;;;;;;10083567;29;20033;-64
2022/09/21 10:06:48;;;;;;;3.78;1.17;;;18.10;66.10;;;;;;10083834;29;20169;-65
2022/09/21 10:11:50;;;;;;;3.83;1.45;;;18.10;66.10;;;;;;10067345;29;20406;-64
2022/09/21 10:16:52;;;;;;;3.63;1.00;;;18.10;66.00;;;;;;10067415;29;20149;-65
2022/09/21 10:21:59;;;;;;;2.38;1.05;;;18.10;65.90;;;;;;10083785;29;20096;-63
2022/09/21 10:27:10;;;;;;;3.08;1.23;;;18.20;66.00;;;;;;10064025;29;20056;-64
2022/09/21 10:32:15;;;;;;;3.25;1.20;;;18.20;65.90;;;;;;10091917;29;20063;-65
2022/09/21 10:37:43;;;;;;;3.22;1.00;;;18.20;66.00;;;;;;10091728;29;20041;-66
2022/09/21 10:42:44;;;;;;;5.10;0.90;;;18.30;66.00;;;;;;10071555;29;20033;-67
2022/09/21 10:48:05;;;;;;;9.55;1.40;;;18.30;65.90;;;;;;10077437;29;20037;-68
2022/09/21 10:53:08;;;;;;;13.95;1.85;;;18.30;66.10;;;;;;10076696;29;20052;-68
2022/09/21 10:58:14;;;;;;;4.63;1.45;;;18.40;65.90;;;;;;10091482;29;20045;-66
2022/09/21 11:03:29;;;;;;;8.07;1.42;;;18.50;65.50;;;;;;10094824;29;20052;-72
2022/09/21 11:08:41;;;;;;;4.13;1.20;;;18.50;65.30;;;;;;10062478;29;20122;-67
2022/09/21 11:13:53;;;;;;;7.43;1.30;;;18.60;65.40;;;;;;10074573;29;20087;-69
2022/09/21 11:19:24;;;;;;;6.75;1.65;;;18.70;65.30;;;;;;10079328;29;20489;-67
2022/09/21 11:24:59;;;;;;;6.90;1.30;;;18.70;65.30;;;;;;10088048;29;20055;-70
2022/09/21 11:30:17;;;;;;;10.57;1.98;;;18.70;65.50;;;;;;10081738;29;20461;-71
2022/09/21 11:36:02;;;;;;;5.47;1.30;;;18.60;65.70;;;;;;10074098;29;20396;-69
2022/09/21 11:41:46;;;;;;;11.15;1.33;;;18.60;65.90;;;;;;10059680;29;20033;-69
2022/09/21 11:46:56;;;;;;;17.17;2.67;;;18.50;66.50;;;;;;10081227;29;20274;-72
2022/09/21 11:52:08;;;;;;;;;;;18.50;66.60;;;;;;10088754;29;20037;-71
2022/09/21 11:57:33;;;;;;;9.52;1.63;;;18.40;66.60;;;;;;10077876;29;20011;-69
2022/09/21 12:03:20;;;;;;;9.65;2.05;;;18.40;66.60;;;;;;10094027;29;20021;-70
2022/09/21 12:08:55;;;;;;;7.78;1.23;;;18.40;66.60;;;;;;10079359;29;20509;-68
2022/09/21 12:14:29;;;;;;;6.80;1.70;;;18.50;66.50;;;;;;10073784;29;20049;-69
2022/09/21 12:20:04;;;;;;;5.28;1.20;;;18.40;66.60;;;;;;10046499;29;20040;-68
2022/09/21 12:25:25;;;;;;;4.35;1.40;;;18.40;66.70;;;;;;10074571;29;20040;-67
2022/09/21 12:30:27;;;;;;;6.22;1.55;;;18.30;66.80;;;;;;10072009;29;20069;-67
2022/09/21 12:35:45;;;;;;;14.88;2.83;;;18.30;66.70;;;;;;10071352;29;20124;-67
2022/09/21 12:41:25;;;;;;;9.20;2.03;;;18.40;68.00;;;;;;10072401;29;20033;-64
2022/09/21 12:46:37;;;;;;;7.80;1.60;;;18.40;66.50;;;;;;10072939;29;20037;-63
2022/09/21 12:51:44;;;;;;;8.70;2.35;;;18.30;67.00;;;;;;10070178;29;20293;-66
2022/09/21 12:57:17;;;;;;;11.80;1.90;;;18.30;67.20;;;;;;10070846;29;20493;-65
2022/09/21 13:02:49;;;;;;;11.45;2.63;;;18.20;67.20;;;;;;10081633;29;20029;-65
2022/09/21 13:08:11;;;;;;;10.13;1.85;;;18.30;67.60;;;;;;10061163;29;20041;-67
2022/09/21 13:13:50;;;;;;;14.05;2.60;;;18.30;67.60;;;;;;10098665;29;20515;-64
2022/09/21 13:19:00;;;;;;;9.10;2.05;;;18.30;67.30;;;;;;10085127;29;20033;-65
2022/09/21 13:24:22;;;;;;;12.23;2.83;;;18.20;67.40;;;;;;10071069;29;20045;-66
2022/09/21 13:29:23;;;;;;;8.27;1.98;;;18.20;67.50;;;;;;10070959;29;20033;-64
2022/09/21 13:34:42;;;;;;;7.25;1.85;;;18.30;67.60;;;;;;10084188;29;20101;-66
2022/09/21 13:40:14;;;;;;;11.38;3.67;;;18.20;67.50;;;;;;10065038;29;20437;-64
2022/09/21 13:45:18;;;;;;;11.52;1.92;;;18.20;67.60;;;;;;10082754;29;20033;-65
2022/09/21 13:50:41;;;;;;;10.52;3.00;;;18.20;67.50;;;;;;10083002;29;20043;-66
2022/09/21 13:55:50;;;;;;;13.48;2.58;;;18.30;67.50;;;;;;10082980;29;20128;-65
2022/09/21 14:01:17;;;;;;;8.73;1.98;;;18.20;67.40;;;;;;10067645;29;20124;-65
2022/09/21 14:06:34;;;;;;;9.35;1.90;;;18.20;67.50;;;;;;10082196;29;20036;-65
2022/09/21 14:11:43;;;;;;;11.05;1.58;;;18.20;67.50;;;;;;10083656;29;20481;-64
2022/09/21 14:16:52;;;;;;;5.60;1.48;;;18.20;67.60;;;;;;10083446;29;20065;-64
2022/09/21 14:22:08;;;;;;;4.90;1.95;;;18.20;67.60;;;;;;10092070;29;20108;-65
2022/09/21 14:27:31;;;;;;;5.60;1.58;;;18.20;67.50;;;;;;10084683;29;20497;-64
2022/09/21 14:33:24;;;;;;;4.43;1.30;;;18.10;67.50;;;;;;10067922;29;20045;-66
2022/09/21 14:38:28;;;;;;;8.32;1.33;;;18.20;67.50;;;;;;10070282;29;20145;-64
2022/09/21 14:43:35;;;;;;;7.35;1.67;;;18.20;67.60;;;;;;10050818;29;20093;-65
2022/09/21 14:49:01;;;;;;;4.78;1.42;;;18.10;67.50;;;;;;10067572;29;20359;-67
2022/09/21 14:54:16;;;;;;;4.57;1.27;;;18.10;67.50;;;;;;10084402;29;20055;-64
2022/09/21 14:59:39;;;;;;;4.10;1.58;;;18.10;67.40;;;;;;10083639;29;20397;-65
2022/09/21 15:05:38;;;;;;;7.57;1.50;;;18.10;67.40;;;;;;10095131;29;20060;-66
2022/09/21 15:11:13;;;;;;;3.65;0.85;;;18.10;67.50;;;;;;10052199;29;20050;-65
2022/09/21 15:16:49;;;;;;;4.15;1.25;;;18.10;67.50;;;;;;10075313;29;20441;-67
2022/09/21 15:22:16;;;;;;;6.63;1.50;;;18.10;68.10;;;;;;10083284;29;20037;-65
2022/09/21 15:27:19;;;;;;;5.75;1.40;;;18.00;67.50;;;;;;10081663;29;20041;-65
2022/09/21 15:32:35;;;;;;;4.15;0.95;;;18.10;67.50;;;;;;10069039;29;20116;-66
2022/09/21 15:37:38;;;;;;;4.22;1.27;;;18.00;67.40;;;;;;10093981;29;20041;-64
2022/09/21 15:43:17;;;;;;;9.30;1.85;;;18.00;67.40;;;;;;10081404;29;20116;-64
2022/09/21 15:48:19;;;;;;;29.27;4.22;;;18.10;67.30;;;;;;10096699;29;20032;-65
2022/09/21 15:53:37;;;;;;;28.02;5.05;;;18.10;67.80;;;;;;10089687;29;20048;-67
2022/09/21 15:58:39;;;;;;;68.22;21.98;;;18.20;67.90;;;;;;10074131;29;20045;-67
2022/09/21 16:03:40;;;;;;;26.45;10.52;;;18.30;75.90;;;;;;10068968;29;20057;-67
2022/09/21 16:08:41;;;;;;;18.08;5.45;;;18.30;72.60;;;;;;10086702;29;20034;-66
2022/09/21 16:19:04;;;;;;;27.65;7.15;;;18.20;68.10;;;;;;10089472;29;20035;-68
2022/09/21 16:24:17;;;;;;;23.23;5.82;;;18.20;73.00;;;;;;10089547;29;20041;-69
2022/09/21 16:29:25;;;;;;;21.15;4.95;;;18.50;73.40;;;;;;10090017;29;20124;-63
2022/09/21 16:34:36;;;;;;;25.08;4.57;;;18.60;72.20;;;;;;10074565;29;20410;-67
2022/09/21 16:39:36;;;;;;;18.73;4.32;;;18.60;71.90;;;;;;10074616;29;20039;-71
2022/09/21 16:44:43;;;;;;;23.67;4.78;;;18.60;71.50;;;;;;10074046;29;20054;-63
2022/09/21 16:49:44;;;;;;;25.10;6.05;;;18.40;70.40;;;;;;10073965;29;20041;-70
2022/09/21 16:54:47;;;;;;;28.55;6.18;;;18.40;70.50;;;;;;10073419;29;20485;-68
2022/09/21 16:59:49;;;;;;;18.77;4.30;;;18.30;70.70;;;;;;10073842;29;20112;-66
2022/09/21 17:04:49;;;;;;;23.92;5.63;;;18.40;71.20;;;;;;10074439;29;20064;-63
2022/09/21 17:09:50;;;;;;;18.60;4.35;;;18.40;71.20;;;;;;10072226;29;20033;-67
2022/09/21 17:14:51;;;;;;;21.30;4.93;;;18.30;71.00;;;;;;10072189;29;20124;-64
2022/09/21 17:19:52;;;;;;;24.10;4.95;;;18.20;70.10;;;;;;10082135;29;20035;-62
2022/09/21 17:24:56;;;;;;;24.67;6.72;;;18.20;70.10;;;;;;10056379;29;20781;-61
2022/09/21 17:30:02;;;;;;;16.95;4.72;;;18.20;70.10;;;;;;10079549;29;20507;-61
2022/09/21 17:35:21;;;;;;;19.60;4.57;;;18.20;70.80;;;;;;10075364;29;20048;-64
2022/09/21 17:40:23;;;;;;;23.40;4.57;;;18.20;70.10;;;;;;10090635;29;20117;-59
2022/09/21 17:45:36;;;;;;;16.58;3.50;;;18.20;70.10;;;;;;10074910;29;20036;-61
2022/09/21 17:50:37;;;;;;;18.08;4.60;;;18.30;70.40;;;;;;10075039;29;20037;-59
2022/09/21 17:55:47;;;;;;;12.68;2.95;;;18.30;70.10;;;;;;10075381;29;20045;-62
2022/09/21 18:01:19;;;;;;;15.82;4.05;;;18.30;70.70;;;;;;10086278;29;20053;-63
2022/09/21 18:06:21;;;;;;;17.50;3.13;;;18.40;70.60;;;;;;10070175;29;20029;-59
2022/09/21 18:11:49;;;;;;;10.70;2.83;;;18.40;70.20;;;;;;10069576;29;20536;-61
2022/09/21 18:16:50;;;;;;;12.63;3.83;;;18.40;70.10;;;;;;10086151;29;20049;-63
2022/09/21 18:22:01;;;;;;;12.40;4.28;;;18.40;70.20;;;;;;10085102;29;20040;-62
2022/09/21 18:27:02;;;;;;;13.40;3.30;;;18.40;70.20;;;;;;10083482;29;20485;-64
2022/09/21 18:32:33;;;;;;;14.75;3.95;;;18.40;70.20;;;;;;10078166;29;20113;-63
2022/09/21 18:38:15;;;;;;;17.63;3.05;;;18.30;70.00;;;;;;10068773;29;20049;-63
2022/09/21 18:43:53;;;;;;;15.52;3.60;;;18.30;70.70;;;;;;10071430;29;20033;-63
2022/09/21 18:49:39;;;;;;;7.47;2.60;;;18.20;70.10;;;;;;10074889;29;20087;-61
2022/09/21 18:54:42;;;;;;;7.07;2.38;;;18.20;70.10;;;;;;10085035;29;20060;-64
2022/09/21 18:59:43;;;;;;;8.07;3.00;;;18.20;70.30;;;;;;10088744;29;20046;-62
2022/09/21 19:04:44;;;;;;;5.70;2.10;;;18.20;70.10;;;;;;10089349;29;20041;-64
2022/09/21 19:10:21;;;;;;;6.38;2.72;;;18.20;70.20;;;;;;10067969;29;20136;-62
2022/09/21 19:16:00;;;;;;;8.48;2.47;;;18.20;70.20;;;;;;10091103;29;20045;-60
2022/09/21 19:21:12;;;;;;;8.73;2.35;;;18.20;70.10;;;;;;10090621;29;20030;-63
2022/09/21 19:26:31;;;;;;;12.65;2.45;;;18.20;70.10;;;;;;10088929;29;20457;-59
2022/09/21 19:31:34;;;;;;;10.20;2.38;;;18.20;70.10;;;;;;10070255;29;20518;-63
2022/09/21 19:36:35;;;;;;;7.72;4.45;;;18.20;69.80;;;;;;10069006;29;20328;-65
2022/09/21 19:41:51;;;;;;;5.18;1.92;;;18.10;69.60;;;;;;10066881;29;20045;-65
2022/09/21 19:47:28;;;;;;;4.57;1.55;;;18.10;69.50;;;;;;10087531;29;20068;-64
2022/09/21 19:52:33;;;;;;;9.93;1.80;;;18.10;69.40;;;;;;10085738;29;20122;-63
2022/09/21 19:59:41;;;;;;;4.68;1.80;;;18.10;69.30;;;;;;10072355;29;20509;-65
2022/09/21 20:03:32;;;;;;;5.32;2.20;;;18.10;69.20;;;;;;10074793;29;20021;-67
2022/09/21 20:08:42;;;;;;;;;;;18.10;69.10;;;;;;10074933;29;20109;-66
2022/09/21 20:13:58;;;;;;;6.40;1.83;;;18.00;69.00;;;;;;10084229;29;19919;-64
2022/09/21 20:19:29;;;;;;;5.88;1.58;;;18.00;68.90;;;;;;10076447;29;20092;-64
2022/09/21 20:24:55;;;;;;;4.38;1.27;;;18.10;68.90;;;;;;10087506;29;20089;-66
2022/09/21 20:29:56;;;;;;;3.38;1.55;;;18.00;68.70;;;;;;10086937;29;20033;-64
2022/09/21 20:34:57;;;;;;;4.40;1.60;;;18.00;68.70;;;;;;10072164;29;20508;-64
2022/09/21 20:39:58;;;;;;;5.63;1.85;;;18.00;68.60;;;;;;10071737;29;20554;-65
2022/09/21 20:44:59;;;;;;;4.85;1.10;;;18.00;68.50;;;;;;10072547;29;20064;-66
2022/09/21 20:49:59;;;;;;;3.80;1.30;;;18.00;68.40;;;;;;10088343;29;20386;-66
2022/09/21 20:55:00;;;;;;;3.35;1.27;;;18.00;68.40;;;;;;10087781;29;20076;-64
2022/09/21 21:00:06;;;;;;;4.15;2.00;;;18.00;68.30;;;;;;10071719;29;20113;-63
2022/09/21 21:05:09;;;;;;;4.68;1.83;;;18.00;68.30;;;;;;10072050;29;20048;-62
2022/09/21 21:10:14;;;;;;;3.58;1.10;;;18.00;68.20;;;;;;10056503;29;20037;-65
2022/09/21 21:15:15;;;;;;;4.38;1.38;;;18.00;68.70;;;;;;10071852;29;20102;-66
2022/09/21 21:20:16;;;;;;;5.00;2.05;;;18.00;68.00;;;;;;10082484;29;20033;-65
2022/09/21 21:25:17;;;;;;;2.53;1.35;;;18.00;68.00;;;;;;10088094;29;20052;-64
2022/09/21 21:30:18;;;;;;;1.80;1.00;;;18.00;67.90;;;;;;10072352;29;20037;-63
2022/09/21 21:35:19;;;;;;;4.35;1.13;;;17.90;67.80;;;;;;10071916;29;20072;-65
2022/09/21 21:40:19;;;;;;;4.93;1.85;;;18.00;67.80;;;;;;10068986;29;20033;-65
2022/09/21 21:45:20;;;;;;;2.83;1.42;;;18.00;67.80;;;;;;10088356;29;20077;-67
2022/09/21 21:50:21;;;;;;;4.50;1.10;;;18.00;67.70;;;;;;10071657;29;20108;-66
2022/09/21 21:55:22;;;;;;;2.83;0.95;;;18.00;67.70;;;;;;10071196;29;20143;-65
2022/09/21 22:00:22;;;;;;;3.60;1.10;;;17.90;67.60;;;;;;10071522;29;20120;-65
2022/09/21 22:05:23;;;;;;;2.83;1.13;;;18.00;67.50;;;;;;10071221;29;20044;-66
2022/09/21 22:10:24;;;;;;;2.90;1.52;;;17.90;67.40;;;;;;10070962;29;20116;-65
2022/09/21 22:15:24;;;;;;;2.35;1.08;;;18.00;67.40;;;;;;10087902;29;20045;-65
2022/09/21 22:20:25;;;;;;;2.38;1.13;;;17.90;67.30;;;;;;10080350;29;20101;-64
2022/09/21 22:25:27;;;;;;;4.43;1.35;;;17.90;67.20;;;;;;10051531;29;20064;-64
2022/09/21 22:30:27;;;;;;;3.95;1.55;;;17.90;67.20;;;;;;10070117;29;20456;-65
2022/09/21 22:35:28;;;;;;;2.53;1.30;;;17.90;67.20;;;;;;10070003;29;20148;-65
2022/09/21 22:40:29;;;;;;;2.25;0.90;;;17.90;67.10;;;;;;10058038;29;20458;-66
2022/09/21 22:45:30;;;;;;;4.57;1.08;;;17.90;67.10;;;;;;10070643;29;20064;-66
2022/09/21 22:50:31;;;;;;;9.90;2.10;;;17.90;67.10;;;;;;10055353;29;20034;-67
2022/09/21 22:55:32;;;;;;;2.53;1.02;;;17.90;67.10;;;;;;10086176;29;20532;-66
2022/09/21 23:00:32;;;;;;;3.15;1.60;;;17.90;67.00;;;;;;10087123;29;20037;-65
2022/09/21 23:05:33;;;;;;;1.65;1.15;;;17.90;67.00;;;;;;10069788;29;20116;-64
2022/09/21 23:10:34;;;;;;;3.47;0.90;;;17.90;66.90;;;;;;10070339;29;20110;-66
2022/09/21 23:15:34;;;;;;;2.75;0.93;;;17.90;66.90;;;;;;10069745;29;20505;-65
2022/09/21 23:20:35;;;;;;;2.13;1.30;;;17.90;66.90;;;;;;10096147;29;20112;-67
2022/09/21 23:25:36;;;;;;;2.13;0.88;;;17.90;66.80;;;;;;10069610;29;20045;-66
2022/09/21 23:30:37;;;;;;;2.22;1.02;;;17.90;66.80;;;;;;10069451;29;20108;-66
2022/09/21 23:35:40;;;;;;;2.50;1.40;;;17.90;66.80;;;;;;10091051;29;20047;-65
2022/09/21 23:40:41;;;;;;;2.30;1.05;;;17.90;66.70;;;;;;10076209;29;20097;-66
2022/09/21 23:45:42;;;;;;;2.15;1.20;;;17.80;66.60;;;;;;10066755;29;20166;-67
2022/09/21 23:50:43;;;;;;;3.65;1.58;;;17.80;66.60;;;;;;10071446;29;20132;-65
2022/09/21 23:55:43;;;;;;;2.60;1.33;;;17.90;66.60;;;;;;10060030;29;20040;-64
